^^
Datos históricos de la estación: Murcia-Puente Tocinos
Diario Informe para Noviembre 24, 2019 Unidades:  Ingés    Métrico   Ambas
Diario Semanal Mensual Anual
  Máxima: Mínima: Promedio:
Temperatura: 61.5 °F 50.2 °F 56.8 °F
Punto de rocio: 38.7 °F 35.2 °F 36.9 °F
Humedad: 63% 38.1% 48%
Velocidad viento: 13.5mph 0mph 6.7mph
Racha viento: 29mph - -
Viento- - OSO
Presión: 30 in 29.8 in -
Precipitación: 0 in    
 
 
Tabla de datos para Noviembre 24, 2019
Hora Temperatura Punto de rocio Presión Viento Velocidad viento Racha viento Humedad Intensidad lluvia(por hora) Nubes
00:04 57.4 °F 36.1 °F 29.8 in SSO 7.5 mph 15 mph 44.9% 0 in
00:09 57.4 °F 35.6 °F 29.8 in SSO 8.1 mph 15 mph 44% 0 in
00:14 57.4 °F 35.6 °F 29.8 in SSO 8.4 mph 15 mph 44% 0 in
00:19 57.2 °F 36 °F 29.8 in SSO 8.5 mph 16.3 mph 44.8% 0 in
00:24 57.6 °F 36.1 °F 29.8 in SSO 8.6 mph 18.4 mph 44.8% 0 in
00:29 57.9 °F 36.1 °F 29.8 in SSO 8.7 mph 20.1 mph 44% 0 in
00:34 58.5 °F 36.1 °F 29.8 in SSO 10.5 mph 21 mph 43.4% 0 in
00:39 58.5 °F 36 °F 29.8 in SO 11.4 mph 21 mph 43% 0 in
00:44 58.3 °F 36 °F 29.8 in SO 9.1 mph 13.8 mph 43% 0 in
00:49 58.3 °F 36.1 °F 29.8 in SO 8.1 mph 18.5 mph 43.6% 0 in
00:54 57.9 °F 36.1 °F 29.8 in SO 8.1 mph 19 mph 44% 0 in
00:59 57.9 °F 36.1 °F 29.8 in SO 8.1 mph 18 mph 44% 0 in
01:04 57.9 °F 36.1 °F 29.8 in SO 8.5 mph 18.4 mph 44% 0 in
01:09 57.7 °F 36 °F 29.8 in OSO 8.7 mph 18 mph 44% 0 in
01:14 57.7 °F 36 °F 29.8 in OSO 8.7 mph 19.6 mph 44% 0 in
01:19 57.7 °F 36 °F 29.8 in OSO 8.7 mph 20 mph 44% 0 in
01:24 57.7 °F 36.1 °F 29.8 in OSO 9.7 mph 19 mph 44.5% 0 in
01:29 57.4 °F 36.3 °F 29.8 in OSO 10.2 mph 17.3 mph 45% 0 in
01:34 57.4 °F 36.1 °F 29.8 in OSO 9.2 mph 17.5 mph 45% 0 in
01:39 57.2 °F 36 °F 29.8 in OSO 8.7 mph 17.3 mph 45% 0 in
01:44 57.2 °F 36 °F 29.8 in OSO 9.6 mph 17 mph 45% 0 in
01:49 57 °F 36 °F 29.8 in OSO 10 mph 16.1 mph 45% 0 in
01:54 57 °F 36 °F 29.8 in OSO 9.1 mph 14 mph 45% 0 in
01:59 56.8 °F 35.6 °F 29.8 in OSO 8.7 mph 13 mph 45% 0 in
02:04 56.5 °F 35.8 °F 29.8 in OSO 7.5 mph 13 mph 45.7% 0 in
02:09 55.9 °F 35.6 °F 29.8 in Oeste 6.9 mph 13 mph 46.2% 0 in
02:14 55.8 °F 35.8 °F 29.8 in Oeste 6.6 mph 12 mph 47% 0 in
02:19 55.4 °F 35.4 °F 29.8 in Oeste 6.4 mph 13 mph 47% 0 in
02:24 55.2 °F 35.2 °F 29.8 in Oeste 6.4 mph 13 mph 47% 0 in
02:29 55.2 °F 35.2 °F 29.8 in OSO 6.4 mph 11 mph 47% 0 in
02:34 55.2 °F 35.2 °F 29.8 in SSO 6.1 mph 10 mph 47% 0 in
02:39 55.2 °F 35.6 °F 29.8 in SSE 5.9 mph 8 mph 47.6% 0 in
02:44 54.1 °F 36 °F 29.8 in SSE 4.8 mph 8.1 mph 50.1% 0 in
02:49 52.9 °F 36 °F 29.8 in SE 4.3 mph 8.1 mph 52.5% 0 in
02:54 52 °F 36 °F 29.8 in SE 4.3 mph 8.5 mph 54.5% 0 in
02:59 51.4 °F 35.8 °F 29.8 in SSE 4.3 mph 9.2 mph 55% 0 in
03:04 51.4 °F 36.1 °F 29.8 in SE 5 mph 10.4 mph 55.5% 0 in
03:09 51.4 °F 36.3 °F 29.8 in SE 5.2 mph 10 mph 56% 0 in
03:14 51.4 °F 36.1 °F 29.8 in SSE 6 mph 10.4 mph 55.4% 0 in
03:19 51.6 °F 36 °F 29.8 in SSE 6.4 mph 10 mph 55% 0 in
03:24 52 °F 36.3 °F 29.8 in Sur 5.7 mph 9 mph 55% 0 in
03:29 52 °F 36.3 °F 29.8 in Sur 5.4 mph 7 mph 55% 0 in
03:34 52 °F 36.3 °F 29.8 in SSE 3.7 mph 5 mph 55% 0 in
03:39 52 °F 36.3 °F 29.8 in SSE 2.9 mph 5 mph 55% 0 in
03:44 51.8 °F 36.3 °F 29.8 in Sur 3 mph 5.2 mph 55.4% 0 in
03:49 51.8 °F 36.3 °F 29.8 in SO 3.1 mph 8.5 mph 55.3% 0 in
03:54 52.7 °F 36 °F 29.8 in OSO 3.9 mph 13 mph 53% 0 in
03:59 54.1 °F 36 °F 29.8 in OSO 4.3 mph 16.3 mph 49.9% 0 in
04:04 55.2 °F 35.8 °F 29.8 in OSO 6.6 mph 17.3 mph 47.7% 0 in
04:09 55.8 °F 35.8 °F 29.8 in OSO 7.6 mph 17 mph 47% 0 in
04:14 55.8 °F 35.8 °F 29.8 in OSO 7.5 mph 15.2 mph 47% 0 in
04:19 55.8 °F 35.8 °F 29.8 in SO 7.4 mph 15 mph 47% 0 in
04:24 55.8 °F 35.8 °F 29.8 in OSO 7.1 mph 17.5 mph 47% 0 in
04:29 55.8 °F 35.2 °F 29.8 in SO 6.9 mph 17 mph 46% 0 in
04:34 55.8 °F 35.2 °F 29.8 in OSO 8 mph 16.1 mph 46% 0 in
04:39 55.8 °F 35.2 °F 29.8 in OSO 8.5 mph 16 mph 46% 0 in
04:44 55.8 °F 35.8 °F 29.8 in OSO 8.5 mph 15 mph 46.8% 0 in
04:49 55.8 °F 35.8 °F 29.8 in OSO 8.5 mph 14 mph 47% 0 in
04:54 55.6 °F 35.8 °F 29.8 in OSO 7.9 mph 14 mph 47% 0 in
04:59 55.4 °F 35.4 °F 29.8 in SO 7.6 mph 16.1 mph 47% 0 in
05:04 55.2 °F 35.8 °F 29.8 in OSO 8 mph 16.1 mph 47.7% 0 in
05:09 55 °F 35.8 °F 29.8 in OSO 8.1 mph 14 mph 48% 0 in
05:14 55 °F 35.8 °F 29.8 in Sur 6.6 mph 9 mph 48.4% 0 in
05:19 54 °F 35.8 °F 29.8 in Sur 5.9 mph 8 mph 50.2% 0 in
05:24 52.9 °F 36 °F 29.8 in Sur 5.1 mph 7 mph 52.3% 0 in
05:29 52.3 °F 35.8 °F 29.8 in Sur 4.7 mph 7 mph 53.2% 0 in
05:34 52.3 °F 36.1 °F 29.8 in Sur 4.4 mph 7.6 mph 54% 0 in
05:39 52.3 °F 35.8 °F 29.9 in Sur 4.3 mph 8.1 mph 53% 0 in
05:44 52.9 °F 36 °F 29.9 in Sur 4.6 mph 8.5 mph 52.5% 0 in
05:49 53.2 °F 36 °F 29.9 in Sur 4.7 mph 9 mph 52% 0 in
05:54 53.2 °F 36.1 °F 29.9 in Sur 5 mph 9.2 mph 51.9% 0 in
05:59 53.6 °F 35.8 °F 29.9 in SO 5.2 mph 9 mph 51% 0 in
06:04 53.8 °F 36.1 °F 29.9 in SSO 4.8 mph 10.4 mph 51% 0 in
06:09 53.8 °F 36.1 °F 29.9 in SO 4.7 mph 10 mph 51% 0 in
06:14 53.8 °F 36.1 °F 29.9 in OSO 4.4 mph 9 mph 51% 0 in
06:19 53.8 °F 36.1 °F 29.9 in OSO 4.3 mph 11.5 mph 51% 0 in
06:24 53.8 °F 36.3 °F 29.9 in SO 4.6 mph 12 mph 51.4% 0 in
06:29 53.6 °F 36.3 °F 29.9 in OSO 4.7 mph 8.5 mph 52% 0 in
06:34 53.4 °F 36.1 °F 29.9 in OSO 4.7 mph 9 mph 52% 0 in
06:39 53.2 °F 36.3 °F 29.9 in OSO 4.7 mph 7.4 mph 52.6% 0 in
06:44 53.1 °F 36.5 °F 29.9 in Oeste 4.4 mph 8.1 mph 53% 0 in
06:49 53.2 °F 36.5 °F 29.9 in OSO 4.3 mph 8 mph 53% 0 in
06:54 53.2 °F 36.5 °F 29.9 in OSO 4.6 mph 8.1 mph 53% 0 in
06:59 53.2 °F 36.5 °F 29.9 in Oeste 4.7 mph 8.1 mph 53% 0 in
07:04 53.2 °F 36.5 °F 29.9 in Oeste 4.2 mph 7 mph 53% 0 in
07:09 53.1 °F 36.5 °F 29.9 in Oeste 4 mph 4 mph 53% 0 in
07:14 53.1 °F 36.5 °F 29.9 in Oeste 2.2 mph 7.6 mph 53.4% 0 in
07:19 52.9 °F 36.7 °F 29.9 in ONO 1.4 mph 8.1 mph 53.9% 0 in
07:24 53.1 °F 36.5 °F 29.9 in SSO 2.5 mph 7 mph 53.3% 0 in
07:29 53.2 °F 36.5 °F 29.9 in SE 3.1 mph 6.2 mph 53% 0 in
07:34 53.2 °F 36.5 °F 29.9 in ESE 3.1 mph 6 mph 53.2% 0 in
07:39 53.2 °F 36.7 °F 29.9 in NE 3.1 mph 12.7 mph 53.5% 0 in
07:44 54 °F 36.9 °F 29.9 in ONO 4.7 mph 13 mph 52.1% 0 in
07:49 54.1 °F 36.9 °F 29.9 in NE 5.4 mph 12.7 mph 52% 0 in
07:54 54.3 °F 37 °F 29.9 in North 5.3 mph 13 mph 52% 0 in
07:59 54.7 °F 37.4 °F 29.9 in Oeste 5.2 mph 13.8 mph 52% 0 in
08:04 54.1 °F 37.2 °F 29.9 in ONO 5.7 mph 14 mph 52.8% 0 in
08:09 53.4 °F 37.2 °F 29.9 in ONO 5.9 mph 13 mph 54% 0 in
08:14 54 °F 37.2 °F 29.9 in ONO 5.9 mph 13 mph 53.2% 0 in
08:19 54 °F 37.2 °F 29.9 in NO 5.9 mph 13 mph 53% 0 in
08:24 54 °F 37.4 °F 29.9 in NO 6.2 mph 10.7 mph 53.4% 0 in
08:29 53.8 °F 37.6 °F 29.9 in NO 6.4 mph 11 mph 54% 0 in
08:34 53.8 °F 37.8 °F 29.9 in NO 6.1 mph 10.4 mph 54.5% 0 in
08:39 54 °F 37.8 °F 29.9 in NNO 5.9 mph 10 mph 54.1% 0 in
08:44 54.3 °F 37.8 °F 29.9 in NNO 4.8 mph 9 mph 53.3% 0 in
08:49 55 °F 37.8 °F 29.9 in NNE 4.3 mph 8.5 mph 52.1% 0 in
08:54 55.4 °F 37.6 °F 29.9 in SSO 4.6 mph 9 mph 51.1% 0 in
08:59 55.6 °F 37.6 °F 29.9 in SO 4.7 mph 7 mph 51% 0 in
09:04 55.6 °F 37.6 °F 29.9 in NO 4.2 mph 6 mph 51% 0 in
09:09 55.9 °F 37.6 °F 29.9 in SE 4 mph 7.4 mph 50.2% 0 in
09:14 56.1 °F 37.8 °F 29.9 in SSO 4.5 mph 10.4 mph 50% 0 in
09:19 56.1 °F 37.9 °F 29.9 in NO 4.7 mph 10 mph 50.4% 0 in
09:24 55.9 °F 38.1 °F 29.9 in NE 4.2 mph 9.2 mph 50.9% 0 in
09:29 56.3 °F 37.8 °F 29.9 in Sur 4 mph 12.7 mph 49.9% 0 in
09:34 56.7 °F 37.8 °F 29.9 in Sur 4.8 mph 13 mph 49% 0 in
09:39 56.8 °F 37.9 °F 29.9 in SSO 5.2 mph 10 mph 49% 0 in
09:44 56.8 °F 37.9 °F 29.9 in SSO 5.7 mph 12.7 mph 49% 0 in
09:49 57 °F 37.6 °F 29.9 in SO 5.9 mph 13 mph 48.1% 0 in
09:54 57.2 °F 37.8 °F 29.9 in SSO 6.6 mph 13 mph 48.2% 0 in
09:59 57.4 °F 37.4 °F 29.9 in SO 6.9 mph 10.7 mph 47.3% 0 in
10:04 57.6 °F 37.6 °F 29.9 in SO 5.7 mph 15.6 mph 47.3% 0 in
10:09 57.7 °F 37.6 °F 29.9 in SSO 5.2 mph 16.1 mph 47% 0 in
10:14 57.9 °F 37.8 °F 29.9 in OSO 6.8 mph 14 mph 47% 0 in
10:19 58.3 °F 37.9 °F 29.9 in OSO 7.6 mph 18.1 mph 46.5% 0 in
10:24 58.3 °F 37.6 °F 29.9 in OSO 8 mph 18.4 mph 46.1% 0 in
10:29 58.5 °F 38.1 °F 29.9 in OSO 8.1 mph 19.7 mph 46.7% 0 in
10:34 58.6 °F 37.9 °F 29.9 in Oeste 8.8 mph 20 mph 46% 0 in
10:39 58.6 °F 37.9 °F 29.9 in Oeste 9.2 mph 22.3 mph 46% 0 in
10:44 58.8 °F 38.1 °F 29.9 in Oeste 9.8 mph 22 mph 46% 0 in
10:49 58.8 °F 37.8 °F 29.9 in Oeste 10 mph 19.6 mph 45.5% 0 in
10:54 58.8 °F 37.9 °F 29.9 in OSO 10.8 mph 20 mph 45.8% 0 in
10:59 58.6 °F 37.9 °F 29.9 in Oeste 11.2 mph 20.8 mph 46% 0 in
11:04 58.6 °F 37.4 °F 29.9 in Oeste 11.2 mph 21.9 mph 45.2% 0 in
11:09 58.6 °F 37.8 °F 29.9 in Oeste 11.2 mph 22 mph 45.6% 0 in
11:14 58.8 °F 38.1 °F 29.9 in Oeste 11.6 mph 21 mph 45.8% 0 in
11:19 59.2 °F 37.8 °F 29.9 in ONO 11.8 mph 20.7 mph 45% 0 in
11:24 59.4 °F 37.9 °F 29.9 in ONO 11.6 mph 21 mph 45% 0 in
11:29 59.4 °F 37.9 °F 29.9 in ONO 11.4 mph 23.5 mph 45% 0 in
11:34 59.2 °F 37.9 °F 29.9 in ONO 12.1 mph 24.6 mph 45.2% 0 in
11:39 59.2 °F 37.8 °F 29.9 in ONO 12.3 mph 25 mph 45% 0 in
11:44 59.2 °F 38.3 °F 29.9 in ONO 12.3 mph 21 mph 46% 0 in
11:49 59.2 °F 38.3 °F 29.9 in Oeste 12.3 mph 17.5 mph 45.8% 0 in
11:54 59.4 °F 38.3 °F 29.9 in ONO 9.8 mph 19.7 mph 45.6% 0 in
11:59 59.2 °F 38.1 °F 29.9 in ONO 8.7 mph 20 mph 45.6% 0 in
12:04 59.2 °F 38.1 °F 29.9 in Oeste 9.6 mph 18 mph 45.5% 0 in
12:09 59 °F 37.8 °F 29.9 in Oeste 10 mph 21.9 mph 45.1% 0 in
12:14 59 °F 38.1 °F 29.9 in OSO 9.8 mph 22 mph 45.8% 0 in
12:19 59.2 °F 37.9 °F 29.9 in Oeste 9.7 mph 20.7 mph 45.3% 0 in
12:24 59 °F 37.8 °F 29.9 in OSO 9 mph 21 mph 45% 0 in
12:29 58.8 °F 37.6 °F 29.9 in Oeste 8.7 mph 20.8 mph 45% 0 in
12:34 59 °F 37.6 °F 29.9 in Oeste 11.2 mph 23.5 mph 45% 0 in
12:39 59.4 °F 37.9 °F 29.9 in Oeste 12.3 mph 23 mph 45% 0 in
12:44 59.5 °F 37.8 °F 29.9 in ONO 11.6 mph 23.5 mph 44.2% 0 in
12:49 59.7 °F 37.8 °F 29.9 in Oeste 11.2 mph 23 mph 44% 0 in
12:54 59.9 °F 37.6 °F 29.9 in Oeste 12.8 mph 22 mph 43.6% 0 in
12:59 60.1 °F 37.6 °F 29.9 in Oeste 13.5 mph 23 mph 43.2% 0 in
13:04 60.3 °F 37.6 °F 29.9 in Oeste 12.3 mph 25.3 mph 43% 0 in
13:09 60.3 °F 37.8 °F 29.9 in Oeste 11.8 mph 25 mph 43% 0 in
13:14 60.3 °F 37.8 °F 29.9 in Oeste 12.1 mph 20 mph 43% 0 in
13:19 60.4 °F 37.6 °F 29.9 in Oeste 12.3 mph 20 mph 42.5% 0 in
13:24 60.6 °F 37.6 °F 29.9 in Oeste 10.6 mph 18.4 mph 42.3% 0 in
13:29 60.6 °F 37.6 °F 29.9 in Oeste 9.7 mph 19 mph 42.4% 0 in
13:34 61 °F 37.9 °F 29.9 in Oeste 9.9 mph 19 mph 42.3% 0 in
13:39 61.3 °F 37.8 °F 29.9 in Oeste 10 mph 18.1 mph 41.5% 0 in
13:44 61.3 °F 37.4 °F 29.9 in Oeste 9 mph 25.3 mph 41% 0 in
13:49 61.2 °F 37.4 °F 29.9 in Oeste 8.5 mph 28.8 mph 41% 0 in
13:54 61.2 °F 37.2 °F 29.9 in ONO 10.4 mph 29 mph 41% 0 in
13:59 61.3 °F 37.6 °F 29.9 in Oeste 11.4 mph 21.3 mph 41.2% 0 in
14:04 61.3 °F 37.2 °F 29.9 in Oeste 12.1 mph 21.5 mph 40.6% 0 in
14:09 61.2 °F 37.4 °F 29.9 in Oeste 12.3 mph 22 mph 41% 0 in
14:14 61.2 °F 37.2 °F 29.9 in Oeste 12.4 mph 22 mph 41% 0 in
14:19 61.2 °F 37.6 °F 29.9 in ONO 12.5 mph 21 mph 41.4% 0 in
14:24 61.3 °F 37.4 °F 29.9 in Oeste 11.6 mph 18.1 mph 40.9% 0 in
14:29 61.3 °F 37.2 °F 29.9 in Oeste 11.2 mph 18.4 mph 40.8% 0 in
14:34 61.3 °F 37.4 °F 29.9 in Oeste 10.4 mph 18.4 mph 40.9% 0 in
14:39 61.5 °F 37 °F 29.9 in Oeste 10 mph 18 mph 40% 0 in
14:44 61.3 °F 36.7 °F 29.9 in Oeste 8.3 mph 17.5 mph 39.8% 0 in
14:49 61.3 °F 36.7 °F 29.9 in OSO 7.4 mph 17.3 mph 39.9% 0 in
14:54 61.3 °F 36.9 °F 29.9 in OSO 7.5 mph 13.5 mph 40% 0 in
14:59 61.3 °F 36.7 °F 29.9 in SO 7.6 mph 16.3 mph 39.7% 0 in
15:04 61.3 °F 36.9 °F 29.9 in SO 9.1 mph 17.3 mph 40% 0 in
15:09 61.3 °F 36.9 °F 29.9 in OSO 9.7 mph 17 mph 40.1% 0 in
15:14 61.2 °F 36.7 °F 29.9 in OSO 8.6 mph 14.5 mph 40.1% 0 in
15:19 61.2 °F 36.7 °F 29.9 in OSO 8.1 mph 15.2 mph 40% 0 in
15:24 61.2 °F 36.7 °F 29.9 in OSO 7.8 mph 15.6 mph 40.2% 0 in
15:29 61.2 °F 36.7 °F 29.9 in OSO 7.6 mph 16.1 mph 40% 0 in
15:34 61.2 °F 36.5 °F 29.9 in OSO 7.6 mph 16.3 mph 40% 0 in
15:39 61 °F 36.7 °F 29.9 in Oeste 7.6 mph 16.1 mph 40.2% 0 in
15:44 60.8 °F 37 °F 29.9 in OSO 8 mph 16.8 mph 41% 0 in
15:49 60.6 °F 36.5 °F 29.9 in OSO 8.1 mph 17.3 mph 40.5% 0 in
15:54 60.6 °F 36.7 °F 29.9 in OSO 9.2 mph 18.4 mph 40.9% 0 in
15:59 60.6 °F 36.9 °F 29.9 in OSO 9.7 mph 18 mph 41% 0 in
16:04 60.8 °F 36.9 °F 29.9 in Oeste 9.9 mph 17.3 mph 41% 0 in
16:09 60.8 °F 36.7 °F 29.9 in OSO 10 mph 19.7 mph 40.4% 0 in
16:14 61 °F 36.5 °F 29.9 in OSO 10 mph 20 mph 40% 0 in
16:19 61.2 °F 36.7 °F 29.9 in OSO 10 mph 16.1 mph 40% 0 in
16:24 61.3 °F 36.7 °F 29.9 in Oeste 9.1 mph 16 mph 40% 0 in
16:29 61.3 °F 36.9 °F 29.9 in Oeste 8.7 mph 18.5 mph 40% 0 in
16:34 61.5 °F 37 °F 29.9 in Oeste 7.8 mph 19 mph 40% 0 in
16:39 61.5 °F 36.9 °F 29.9 in OSO 7.4 mph 16.8 mph 39.8% 0 in
16:44 61.5 °F 36.3 °F 29.9 in OSO 8.6 mph 19 mph 39% 0 in
16:49 61.3 °F 36.1 °F 29.9 in OSO 9.2 mph 19 mph 39% 0 in
16:54 61.3 °F 36.3 °F 29.9 in Oeste 9.8 mph 17.8 mph 39.3% 0 in
16:59 61.2 °F 36.7 °F 29.9 in Oeste 10 mph 18 mph 40% 0 in
17:04 61.2 °F 36.3 °F 29.9 in OSO 8.3 mph 14 mph 39.4% 0 in
17:09 61.2 °F 36.5 °F 29.9 in Oeste 7.6 mph 12 mph 39.8% 0 in
17:14 61.2 °F 36 °F 29.9 in Oeste 5.6 mph 12.5 mph 39% 0 in
17:19 61 °F 35.2 °F 29.9 in OSO 4.7 mph 13 mph 38.1% 0 in
17:24 61 °F 35.6 °F 29.9 in SSO 5.7 mph 13 mph 38.6% 0 in
17:29 60.8 °F 35.6 °F 29.9 in SSO 6.2 mph 9 mph 38.9% 0 in
17:34 61 °F 36.1 °F 29.9 in SO 5.2 mph 8.1 mph 39.7% 0 in
17:39 60.8 °F 35.8 °F 29.9 in SO 4.7 mph 8.1 mph 39.2% 0 in
17:44 60.6 °F 36.5 °F 29.9 in SSO 3.6 mph 8 mph 40.5% 0 in
17:49 60.4 °F 35.8 °F 29.9 in SO 3.1 mph 5 mph 39.6% 0 in
17:54 60.3 °F 36.9 °F 29.9 in SSO 2.6 mph 5.2 mph 41.8% 0 in
17:59 60.1 °F 38.5 °F 29.9 in Sur 2.4 mph 5.9 mph 44.7% 0 in
18:04 59.7 °F 38.3 °F 29.9 in SSO 3.2 mph 6 mph 44.9% 0 in
18:09 59.7 °F 38.5 °F 29.9 in Sur 3.6 mph 6 mph 45.3% 0 in
18:14 59.5 °F 37.6 °F 29.9 in SO 2.5 mph 9.2 mph 44.2% 0 in
18:19 59.4 °F 36.7 °F 29.9 in SSO 2 mph 10.4 mph 42.9% 0 in
18:24 59.4 °F 38.3 °F 29.9 in SSE 4.3 mph 10 mph 45.7% 0 in
18:29 59.2 °F 38.5 °F 29.9 in SSO 5.4 mph 7 mph 46.1% 0 in
18:34 58.8 °F 38.7 °F 29.9 in SO 4.2 mph 5 mph 46.9% 0 in
18:39 58.6 °F 38.5 °F 29.9 in Sur 3.6 mph 5.9 mph 47% 0 in
18:44 58.6 °F 38.5 °F 29.9 in SSO 3.6 mph 6 mph 47% 0 in
18:49 58.5 °F 38.7 °F 29.9 in NO 3.6 mph 6 mph 47.7% 0 in
18:54 57.9 °F 38.3 °F 29.9 in NO 2.5 mph 5 mph 47.7% 0 in
18:59 57.7 °F 38.5 °F 29.9 in NO 2 mph 4.6 mph 48.4% 0 in
19:04 57.6 °F 38.3 °F 29.9 in NO 1.6 mph 5 mph 48.6% 0 in
19:09 57.4 °F 37 °F 29.9 in Oeste 1.4 mph 5.9 mph 46.6% 0 in
19:14 57.6 °F 36.9 °F 29.9 in Oeste 2.1 mph 6.2 mph 45.8% 0 in
19:19 57.7 °F 36.5 °F 29.9 in OSO 2.4 mph 6.9 mph 45.2% 0 in
19:24 57.6 °F 36.9 °F 29.9 in OSO 3.2 mph 7.4 mph 46.1% 0 in
19:29 57.4 °F 36.9 °F 29.9 in ONO 3.6 mph 11.8 mph 46% 0 in
19:34 57.4 °F 36.3 °F 29.9 in ONO 4.8 mph 12 mph 45.1% 0 in
19:39 57.4 °F 36.1 °F 29.9 in Oeste 5.4 mph 15 mph 45% 0 in
19:44 57.4 °F 36.1 °F 29.9 in Oeste 6.4 mph 15 mph 45% 0 in
19:49 57 °F 36.3 °F 29.9 in Oeste 6.9 mph 13.8 mph 45.8% 0 in
19:54 57 °F 36.3 °F 29.9 in Oeste 7.4 mph 16.1 mph 45.8% 0 in
19:59 57.6 °F 36 °F 29.9 in Oeste 7.6 mph 16 mph 44.6% 0 in
20:04 57.6 °F 36.1 °F 29.9 in Oeste 7.5 mph 14 mph 44.6% 0 in
20:09 57.6 °F 36 °F 29.9 in Oeste 7.4 mph 15.9 mph 44.4% 0 in
20:14 57.9 °F 36 °F 29.9 in ONO 8.1 mph 16.1 mph 43.5% 0 in
20:19 58.3 °F 35.8 °F 29.9 in Oeste 8.5 mph 16 mph 43% 0 in
20:24 58.3 °F 36 °F 29.9 in Oeste 8.6 mph 15 mph 43.1% 0 in
20:29 57.9 °F 36.1 °F 29.9 in ONO 8.7 mph 15 mph 44% 0 in
20:34 57.9 °F 36.1 °F 29.9 in ONO 8.7 mph 15 mph 44% 0 in
20:39 57.7 °F 36.1 °F 29.9 in ONO 8.7 mph 15.2 mph 44.4% 0 in
20:44 57.4 °F 36.1 °F 29.9 in ONO 8.3 mph 15 mph 45% 0 in
20:49 57 °F 36.1 °F 29.9 in ONO 8.1 mph 15 mph 45.6% 0 in
20:54 57 °F 36.3 °F 29.9 in ONO 7 mph 13 mph 46% 0 in
20:59 56.7 °F 36.3 °F 29.9 in ONO 6.4 mph 9 mph 46.3% 0 in
21:04 56.5 °F 36.5 °F 29.9 in ONO 4.9 mph 7.4 mph 47% 0 in
21:09 56.1 °F 36.5 °F 29.9 in OSO 4.3 mph 7 mph 47.4% 0 in
21:14 55.9 °F 36.5 °F 29.9 in SSO 3.9 mph 7 mph 48% 0 in
21:19 55.6 °F 37 °F 29.9 in Sur 3.6 mph 6 mph 49.6% 0 in
21:24 55 °F 37.4 °F 29.9 in SSO 3.9 mph 8.5 mph 51.5% 0 in
21:29 54.5 °F 37.2 °F 29.9 in SSO 4 mph 9 mph 52% 0 in
21:34 54.3 °F 37.2 °F 29.9 in SO 4.5 mph 8 mph 52.4% 0 in
21:39 54.3 °F 37.4 °F 29.9 in SO 4.7 mph 7 mph 52.8% 0 in
21:44 54.3 °F 37.6 °F 29.9 in SO 4 mph 7 mph 53% 0 in
21:49 54.3 °F 37.6 °F 29.9 in OSO 3.6 mph 6 mph 53% 0 in
21:54 54.1 °F 37.4 °F 29.9 in OSO 3.2 mph 5 mph 53% 0 in
21:59 54 °F 37.6 °F 29.9 in OSO 3.1 mph 5.2 mph 53.7% 0 in
22:04 53.8 °F 37.6 °F 29.9 in OSO 3 mph 5 mph 54.5% 0 in
22:09 53.2 °F 37.8 °F 29.9 in Oeste 2.9 mph 4.6 mph 55.3% 0 in
22:14 53.1 °F 37.8 °F 29.9 in ONO 2.1 mph 5 mph 56% 0 in
22:19 52.9 °F 37.9 °F 29.9 in ONO 1.8 mph 2.4 mph 56.7% 0 in
22:24 52.5 °F 37.8 °F 30 in ONO 0.6 mph 2.3 mph 57% 0 in
22:29 52.3 °F 38.1 °F 30 in Calm   2.3 mph 57.9% 0 in
22:34 52.2 °F 37.9 °F 30 in Calm   3.6 mph 58% 0 in
22:39 52.2 °F 37.9 °F 30 in Calm   5.2 mph 58.3% 0 in
22:44 52.2 °F 38.1 °F 30 in SSE 1.9 mph 5.8 mph 59% 0 in
22:49 52 °F 38.1 °F 30 in SSE 2.9 mph 6 mph 59% 0 in
22:54 52 °F 38.3 °F 30 in SSE 3.4 mph 7.4 mph 59.6% 0 in
22:59 51.6 °F 38.3 °F 30 in SE 3.6 mph 7.4 mph 60% 0 in
23:04 51.4 °F 38.3 °F 30 in ESE 4.3 mph 8.1 mph 60.6% 0 in
23:09 50.7 °F 38.1 °F 30 in SE 4.7 mph 8.1 mph 62.1% 0 in
23:14 50.2 °F 38.1 °F 30 in SE 5.2 mph 8.1 mph 63% 0 in
23:19 50.4 °F 37.9 °F 30 in SSE 5.4 mph 10.2 mph 62.3% 0 in
23:24 50.7 °F 37.6 °F 30 in SSE 6 mph 10.4 mph 60.7% 0 in
23:29 51.3 °F 37.6 °F 30 in SE 6.2 mph 10 mph 59.4% 0 in
23:34 51.4 °F 37.4 °F 30 in SE 5.7 mph 9 mph 58.9% 0 in
23:39 51.4 °F 37.6 °F 30 in SSE 5.4 mph 7 mph 59% 0 in
23:44 51.3 °F 37.4 °F 30 in SSE 4.7 mph 8.1 mph 59% 0 in
23:49 51.1 °F 37.6 °F 30 in SSE 4.3 mph 9.2 mph 59.9% 0 in
23:54 50.7 °F 37.6 °F 30 in SSE 5.4 mph 9 mph 60.5% 0 in
23:59 50.5 °F 37.6 °F 29.9 in SSE 5.9 mph 9.2 mph 61% 0 in
Murcia-Puente Tocinos, España
Compliments of Weather Underground - 2.75 mb

La estación de MeteoMurcia.com, publica sus datos en los siguientes proyectos:

Weather Underground PWS IMURCIAP2 Meteoclimatic www.awekas.at

W3Counter
Web Analytics